ETEB/QOB METAR and TAF weather

Enter ICAO airport designator
Station Type Date Time Source
ETEB METAR 2020/12/05 05:56 UTC NOAA

ETEB 050556Z AUTO 25010KT 9999 OVC007 M01/M01 A2941 RMK AO2 SLP998 T10151015 11007 21039 52044 $


Station Type Date Time Source
ETEB Decoded METAR 2020/12/05 05:56 UTC NOAA

Ansbach / Katterbach, Germany (ETEB) 49-19N 010-38E 476M
Dec 05, 2020 - 12:56 AM EST / 2020.12.05 0556 UTC
Wind: from the WSW (250 degrees) at 12 MPH (10 KT):0
Visibility: greater than 7 mile(s):0
Sky conditions: overcast
Temperature: 29.3 F (-1.5 C)
Windchill: 19 F (-7 C):1
Dew Point: 29.3 F (-1.5 C)
Relative Humidity: 100%
Pressure (altimeter): 29.41 in. Hg (995 hPa)
Pressure tendency: 0.13 inches (4.4 hPa) higher than three hours ago
ob: ETEB 050556Z AUTO 25010KT 9999 OVC007 M01/M01 A2941 RMK AO2 SLP998 T10151015 11007 21039 52044
cycle: 6

Station Type Date Time Source
ETEB TAF 2020/12/04 09:31 UTC NOAA

TAF ETEB 040900Z 0409/0515 12012KT 8000 BR FEW080 BKN120 QNH2918INS
BECMG 0505/0506 27006KT 4000 -RASN OVC007 620079 QNH2934INS TX01/0412Z TNM03/0503Z LAST NO
AMDS AFT 0417 NEXT 0709

Example: see airport list